KTXK/TXK METAR and TAF weather

Enter ICAO airport designator
Station Type Date Time Source
KTXK METAR 2019/02/16 16:53 UTC NOAA

KTXK 161653Z 10005KT 10SM OVC011 04/02 A2992 RMK AO2 SLP131 T00390017


Station Type Date Time Source
KTXK Decoded METAR 2019/02/16 16:53 UTC NOAA

TEXARKANA RGNL WEBB FIELD, AR, United States (KTXK) 33-27N 093-59W 111M
Feb 16, 2019 - 11:53 AM EST / 2019.02.16 1653 UTC
Wind: from the E (100 degrees) at 6 MPH (5 KT):0
Visibility: 10 mile(s):0
Sky conditions: overcast
Temperature: 39.0 F (3.9 C)
Dew Point: 35.1 F (1.7 C)
Relative Humidity: 85%
Pressure (altimeter): 29.92 in. Hg (1013 hPa)
ob: KTXK 161653Z 10005KT 10SM OVC011 04/02 A2992 RMK AO2 SLP131 T00390017
cycle: 17

Station Type Date Time Source
KTXK TAF 2019/02/16 18:24 UTC NOAA

TAF KTXK 161721Z 1618/1718 09005KT P6SM OVC015
TEMPO 1620/1624 5SM -RA BR OVC025
FM170000 09005KT P6SM VCSH OVC020
TEMPO 1703/1706 3SM -RA BR OVC010
FM170600 VRB05KT 3SM -RA BR OVC008
TEMPO 1710/1712 30006KT 5SM -RA BR OVC005
FM171200 31006KT 5SM -RA BR OVC005
FM171500 32007KT P6SM OVC010


Example: see airport list